Atlanta Naval Air Station, Georgia
Current Conditions -  °F | °C
As of 2:05 PM on Friday 31 Oct 2014 (Local Time) from KMGE Reporting Station
Broken Clouds Broken Clouds  
Wind Chill: 13°   Ceiling: 7000
Heat Index: 13°   Visibility: 10mi
Dew Point:   Wind: 13mph
Humidity: 67%   Direction: 280°W
Pressure: 29.91"   Gusts: NA
Location:  33.9252°N, 84.5422°W
Report Text: KMGE 311805Z 28011KT 10SM FEW030 BKN070 BKN250 13/07 A2991 RMK AO2A $
Loading
Personal Weather Stations






























Interactive Weather Map
Tropical Storm Tracking
New forecast layout! Learn more

10-Day Weather Forecast

Advertisements
Track Severe Weather on mobile